sensor_id;sensor_type;location;lat;lon;timestamp;pressure;altitude;pressure_sealevel;temperature;humidity
47080;BME280;33067;49.296;14.470;2023-02-12T00:01:30;98632.82;;;6.01;48.75
47080;BME280;33067;49.296;14.470;2023-02-12T00:03:56;98626.09;;;6.53;48.09
47080;BME280;33067;49.296;14.470;2023-02-12T00:06:21;98617.00;;;6.71;48.23
47080;BME280;33067;49.296;14.470;2023-02-12T00:08:49;98618.49;;;6.24;48.72
47080;BME280;33067;49.296;14.470;2023-02-12T00:11:14;98617.86;;;5.94;49.19
47080;BME280;33067;49.296;14.470;2023-02-12T00:13:38;98618.59;;;6.12;49.05
47080;BME280;33067;49.296;14.470;2023-02-12T00:16:04;98620.25;;;6.40;47.84
47080;BME280;33067;49.296;14.470;2023-02-12T00:18:28;98617.97;;;6.38;48.29
47080;BME280;33067;49.296;14.470;2023-02-12T00:20:53;98618.38;;;6.06;48.77
47080;BME280;33067;49.296;14.470;2023-02-12T00:23:19;98619.58;;;5.75;49.29
47080;BME280;33067;49.296;14.470;2023-02-12T00:25:45;98620.35;;;6.10;48.84
47080;BME280;33067;49.296;14.470;2023-02-12T00:28:10;98622.75;;;6.56;47.94
47080;BME280;33067;49.296;14.470;2023-02-12T00:30:35;98624.47;;;6.31;47.54
47080;BME280;33067;49.296;14.470;2023-02-12T00:33:01;98620.32;;;6.36;48.35
47080;BME280;33067;49.296;14.470;2023-02-12T00:35:26;98618.83;;;5.34;49.39
47080;BME280;33067;49.296;14.470;2023-02-12T00:37:52;98614.12;;;6.03;48.96
47080;BME280;33067;49.296;14.470;2023-02-12T00:40:18;98619.71;;;5.45;49.66
47080;BME280;33067;49.296;14.470;2023-02-12T00:42:43;98623.24;;;5.85;49.55
47080;BME280;33067;49.296;14.470;2023-02-12T00:45:09;98614.53;;;5.55;49.70
47080;BME280;33067;49.296;14.470;2023-02-12T00:47:34;98618.29;;;5.63;49.98
47080;BME280;33067;49.296;14.470;2023-02-12T00:49:59;98619.52;;;6.38;48.72
47080;BME280;33067;49.296;14.470;2023-02-12T00:52:25;98621.32;;;5.63;48.89
47080;BME280;33067;49.296;14.470;2023-02-12T00:54:50;98619.66;;;5.85;49.15
47080;BME280;33067;49.296;14.470;2023-02-12T00:57:15;98623.01;;;6.13;49.10
47080;BME280;33067;49.296;14.470;2023-02-12T00:59:41;98623.39;;;5.54;49.74
47080;BME280;33067;49.296;14.470;2023-02-12T01:02:06;98634.08;;;6.54;48.26
47080;BME280;33067;49.296;14.470;2023-02-12T01:04:31;98643.09;;;6.88;47.40
47080;BME280;33067;49.296;14.470;2023-02-12T01:06:56;98645.55;;;6.23;49.02
47080;BME280;33067;49.296;14.470;2023-02-12T01:09:22;98645.46;;;6.23;48.33
47080;BME280;33067;49.296;14.470;2023-02-12T01:11:47;98644.77;;;5.79;49.52
47080;BME280;33067;49.296;14.470;2023-02-12T01:14:12;98646.51;;;6.29;48.48
47080;BME280;33067;49.296;14.470;2023-02-12T01:16:38;98650.89;;;6.53;48.01
47080;BME280;33067;49.296;14.470;2023-02-12T01:19:04;98650.70;;;6.28;48.45
47080;BME280;33067;49.296;14.470;2023-02-12T01:21:32;98653.15;;;6.59;48.32
47080;BME280;33067;49.296;14.470;2023-02-12T01:23:55;98656.95;;;6.83;47.62
47080;BME280;33067;49.296;14.470;2023-02-12T01:26:21;98657.22;;;6.73;47.71
47080;BME280;33067;49.296;14.470;2023-02-12T01:28:49;98650.69;;;6.44;48.25
47080;BME280;33067;49.296;14.470;2023-02-12T01:31:13;98649.24;;;6.63;48.14
47080;BME280;33067;49.296;14.470;2023-02-12T01:33:37;98642.86;;;7.05;47.88
47080;BME280;33067;49.296;14.470;2023-02-12T01:36:03;98641.55;;;6.12;49.22
47080;BME280;33067;49.296;14.470;2023-02-12T01:38:28;98646.90;;;6.62;47.90
47080;BME280;33067;49.296;14.470;2023-02-12T01:41:02;98648.44;;;6.79;47.47
47080;BME280;33067;49.296;14.470;2023-02-12T01:43:19;98654.66;;;6.89;47.26
47080;BME280;33067;49.296;14.470;2023-02-12T01:45:49;98652.99;;;6.22;48.33
47080;BME280;33067;49.296;14.470;2023-02-12T01:48:10;98658.01;;;6.58;48.30
47080;BME280;33067;49.296;14.470;2023-02-12T01:50:35;98657.66;;;6.58;48.01
47080;BME280;33067;49.296;14.470;2023-02-12T01:53:01;98657.06;;;6.93;47.49
47080;BME280;33067;49.296;14.470;2023-02-12T01:55:26;98658.27;;;7.39;46.60
47080;BME280;33067;49.296;14.470;2023-02-12T01:57:52;98657.69;;;7.15;46.93
47080;BME280;33067;49.296;14.470;2023-02-12T02:00:20;98662.46;;;7.04;46.97
47080;BME280;33067;49.296;14.470;2023-02-12T02:02:45;98665.32;;;6.99;47.36
47080;BME280;33067;49.296;14.470;2023-02-12T02:05:08;98661.96;;;7.22;46.74
47080;BME280;33067;49.296;14.470;2023-02-12T02:07:33;98664.95;;;6.81;47.38
47080;BME280;33067;49.296;14.470;2023-02-12T02:09:59;98664.87;;;6.82;47.60
47080;BME280;33067;49.296;14.470;2023-02-12T02:12:26;98664.62;;;7.30;46.66
47080;BME280;33067;49.296;14.470;2023-02-12T02:14:54;98668.19;;;7.47;46.18
47080;BME280;33067;49.296;14.470;2023-02-12T02:17:27;98666.68;;;7.41;46.15
47080;BME280;33067;49.296;14.470;2023-02-12T02:20:08;98661.40;;;7.47;46.15
47080;BME280;33067;49.296;14.470;2023-02-12T02:22:20;98656.70;;;7.66;45.81
47080;BME280;33067;49.296;14.470;2023-02-12T02:24:51;98656.99;;;6.82;46.96
47080;BME280;33067;49.296;14.470;2023-02-12T02:27:09;98654.95;;;7.38;45.74
47080;BME280;33067;49.296;14.470;2023-02-12T02:31:54;98653.55;;;7.64;45.75
47080;BME280;33067;49.296;14.470;2023-02-12T02:34:18;98649.11;;;7.88;45.02
47080;BME280;33067;49.296;14.470;2023-02-12T02:36:44;98649.94;;;7.67;43.80
47080;BME280;33067;49.296;14.470;2023-02-12T02:39:15;98650.95;;;8.20;43.79
47080;BME280;33067;49.296;14.470;2023-02-12T02:41:34;98653.53;;;7.30;45.27
47080;BME280;33067;49.296;14.470;2023-02-12T02:43:56;98655.05;;;7.42;45.99
47080;BME280;33067;49.296;14.470;2023-02-12T02:46:26;98656.27;;;7.23;46.31
47080;BME280;33067;49.296;14.470;2023-02-12T02:48:50;98656.26;;;6.64;47.10
47080;BME280;33067;49.296;14.470;2023-02-12T02:51:15;98647.62;;;7.29;46.36
47080;BME280;33067;49.296;14.470;2023-02-12T02:53:41;98643.80;;;6.59;46.74
47080;BME280;33067;49.296;14.470;2023-02-12T02:56:06;98642.09;;;6.81;47.27
47080;BME280;33067;49.296;14.470;2023-02-12T02:58:33;98642.87;;;6.64;47.51
47080;BME280;33067;49.296;14.470;2023-02-12T03:00:57;98642.33;;;6.69;47.56
47080;BME280;33067;49.296;14.470;2023-02-12T03:03:24;98648.18;;;6.66;47.48
47080;BME280;33067;49.296;14.470;2023-02-12T03:05:46;98653.30;;;6.85;47.18
47080;BME280;33067;49.296;14.470;2023-02-12T03:08:13;98658.89;;;6.69;47.50
47080;BME280;33067;49.296;14.470;2023-02-12T03:13:02;98666.58;;;6.95;46.98
47080;BME280;33067;49.296;14.470;2023-02-12T03:15:29;98665.03;;;7.24;46.41
47080;BME280;33067;49.296;14.470;2023-02-12T03:17:49;98668.41;;;6.85;46.94
47080;BME280;33067;49.296;14.470;2023-02-12T03:20:18;98670.08;;;7.07;46.93
47080;BME280;33067;49.296;14.470;2023-02-12T03:22:44;98671.54;;;7.18;46.39
47080;BME280;33067;49.296;14.470;2023-02-12T03:25:12;98671.15;;;7.18;46.01
47080;BME280;33067;49.296;14.470;2023-02-12T03:27:33;98675.18;;;7.50;45.72
47080;BME280;33067;49.296;14.470;2023-02-12T03:29:57;98680.12;;;7.43;45.67
47080;BME280;33067;49.296;14.470;2023-02-12T03:32:28;98682.28;;;7.03;45.93
47080;BME280;33067;49.296;14.470;2023-02-12T03:34:50;98688.93;;;7.52;45.94
47080;BME280;33067;49.296;14.470;2023-02-12T03:37:18;98691.49;;;7.56;46.00
47080;BME280;33067;49.296;14.470;2023-02-12T03:39:46;98695.77;;;7.46;45.92
47080;BME280;33067;49.296;14.470;2023-02-12T03:42:07;98697.33;;;7.18;46.27
47080;BME280;33067;49.296;14.470;2023-02-12T03:44:42;98698.26;;;7.36;45.91
47080;BME280;33067;49.296;14.470;2023-02-12T03:47:00;98698.46;;;7.54;45.59
47080;BME280;33067;49.296;14.470;2023-02-12T03:49:25;98700.51;;;8.07;45.23
47080;BME280;33067;49.296;14.470;2023-02-12T03:51:46;98699.88;;;7.65;45.46
47080;BME280;33067;49.296;14.470;2023-02-12T03:54:14;98692.88;;;7.87;44.82
47080;BME280;33067;49.296;14.470;2023-02-12T03:56:41;98692.34;;;7.79;44.90
47080;BME280;33067;49.296;14.470;2023-02-12T03:59:02;98697.60;;;7.47;45.69
47080;BME280;33067;49.296;14.470;2023-02-12T04:01:27;98700.72;;;7.80;45.18
47080;BME280;33067;49.296;14.470;2023-02-12T04:03:53;98705.51;;;7.97;44.68
47080;BME280;33067;49.296;14.470;2023-02-12T04:06:22;98711.08;;;7.75;44.84
47080;BME280;33067;49.296;14.470;2023-02-12T04:08:44;98716.24;;;7.46;45.82
47080;BME280;33067;49.296;14.470;2023-02-12T04:11:19;98720.38;;;7.54;46.00
47080;BME280;33067;49.296;14.470;2023-02-12T04:13:41;98720.76;;;6.96;46.52
47080;BME280;33067;49.296;14.470;2023-02-12T04:16:09;98719.21;;;7.02;46.42
47080;BME280;33067;49.296;14.470;2023-02-12T04:18:33;98721.88;;;7.31;45.98
47080;BME280;33067;49.296;14.470;2023-02-12T04:20:55;98725.04;;;7.49;46.05
47080;BME280;33067;49.296;14.470;2023-02-12T04:23:29;98727.87;;;7.71;45.67
47080;BME280;33067;49.296;14.470;2023-02-12T04:25:51;98732.55;;;7.73;45.28
47080;BME280;33067;49.296;14.470;2023-02-12T04:28:13;98732.73;;;6.94;46.46
47080;BME280;33067;49.296;14.470;2023-02-12T04:30:36;98739.83;;;7.29;46.24
47080;BME280;33067;49.296;14.470;2023-02-12T04:33:01;98740.19;;;7.78;45.66
47080;BME280;33067;49.296;14.470;2023-02-12T04:35:27;98743.37;;;7.55;45.76
47080;BME280;33067;49.296;14.470;2023-02-12T04:37:51;98742.77;;;7.80;45.65
47080;BME280;33067;49.296;14.470;2023-02-12T04:40:16;98747.24;;;7.36;45.24
47080;BME280;33067;49.296;14.470;2023-02-12T04:42:41;98747.84;;;7.81;45.52
47080;BME280;33067;49.296;14.470;2023-02-12T04:45:08;98747.22;;;7.29;46.31
47080;BME280;33067;49.296;14.470;2023-02-12T04:47:30;98753.28;;;7.41;45.95
47080;BME280;33067;49.296;14.470;2023-02-12T04:49:56;98756.88;;;7.64;45.51
47080;BME280;33067;49.296;14.470;2023-02-12T04:52:21;98755.09;;;7.45;45.67
47080;BME280;33067;49.296;14.470;2023-02-12T04:54:47;98756.00;;;7.26;45.94
47080;BME280;33067;49.296;14.470;2023-02-12T04:57:12;98755.46;;;7.39;46.31
47080;BME280;33067;49.296;14.470;2023-02-12T04:59:38;98760.48;;;6.93;46.82
47080;BME280;33067;49.296;14.470;2023-02-12T05:02:04;98763.50;;;7.31;46.40
47080;BME280;33067;49.296;14.470;2023-02-12T05:04:29;98765.69;;;7.50;46.31
47080;BME280;33067;49.296;14.470;2023-02-12T05:06:55;98767.56;;;7.53;46.03
47080;BME280;33067;49.296;14.470;2023-02-12T05:09:20;98770.30;;;6.75;47.18
47080;BME280;33067;49.296;14.470;2023-02-12T05:11:46;98771.00;;;7.51;46.52
47080;BME280;33067;49.296;14.470;2023-02-12T05:14:12;98772.23;;;7.59;46.07
47080;BME280;33067;49.296;14.470;2023-02-12T05:16:37;98770.85;;;6.93;46.28
47080;BME280;33067;49.296;14.470;2023-02-12T05:19:02;98775.03;;;7.18;45.97
47080;BME280;33067;49.296;14.470;2023-02-12T05:21:27;98773.12;;;7.37;46.37
47080;BME280;33067;49.296;14.470;2023-02-12T05:23:53;98773.40;;;6.69;47.37
47080;BME280;33067;49.296;14.470;2023-02-12T05:26:20;98773.90;;;6.75;47.23
47080;BME280;33067;49.296;14.470;2023-02-12T05:28:44;98777.67;;;7.20;47.12
47080;BME280;33067;49.296;14.470;2023-02-12T05:31:12;98780.16;;;7.23;46.51
47080;BME280;33067;49.296;14.470;2023-02-12T05:33:34;98782.95;;;7.30;46.25
47080;BME280;33067;49.296;14.470;2023-02-12T05:36:03;98789.02;;;7.66;46.24
47080;BME280;33067;49.296;14.470;2023-02-12T05:38:25;98789.30;;;7.44;46.07
47080;BME280;33067;49.296;14.470;2023-02-12T05:40:51;98789.22;;;7.09;46.34
47080;BME280;33067;49.296;14.470;2023-02-12T05:43:16;98791.70;;;7.32;46.77
47080;BME280;33067;49.296;14.470;2023-02-12T05:45:42;98795.49;;;6.93;46.71
47080;BME280;33067;49.296;14.470;2023-02-12T05:48:07;98796.80;;;7.19;47.05
47080;BME280;33067;49.296;14.470;2023-02-12T05:50:33;98798.82;;;7.75;46.51
47080;BME280;33067;49.296;14.470;2023-02-12T05:52:59;98807.57;;;7.72;45.58
47080;BME280;33067;49.296;14.470;2023-02-12T05:55:24;98807.74;;;8.06;45.24
47080;BME280;33067;49.296;14.470;2023-02-12T05:57:50;98808.01;;;8.02;45.11
47080;BME280;33067;49.296;14.470;2023-02-12T06:00:15;98807.36;;;7.55;45.42
47080;BME280;33067;49.296;14.470;2023-02-12T06:02:39;98808.31;;;7.68;46.14
47080;BME280;33067;49.296;14.470;2023-02-12T06:05:05;98814.15;;;7.90;45.52
47080;BME280;33067;49.296;14.470;2023-02-12T06:07:30;98815.21;;;7.95;46.23
47080;BME280;33067;49.296;14.470;2023-02-12T06:09:55;98819.52;;;7.96;45.86
47080;BME280;33067;49.296;14.470;2023-02-12T06:12:20;98818.15;;;7.37;47.08
47080;BME280;33067;49.296;14.470;2023-02-12T06:14:46;98817.61;;;6.84;47.70
47080;BME280;33067;49.296;14.470;2023-02-12T06:17:12;98814.90;;;6.89;47.87
47080;BME280;33067;49.296;14.470;2023-02-12T06:19:37;98818.42;;;6.80;47.97
47080;BME280;33067;49.296;14.470;2023-02-12T06:22:03;98829.95;;;5.62;48.69
47080;BME280;33067;49.296;14.470;2023-02-12T06:24:27;98834.54;;;7.13;47.75
47080;BME280;33067;49.296;14.470;2023-02-12T06:26:53;98841.46;;;6.81;48.73
47080;BME280;33067;49.296;14.470;2023-02-12T06:29:19;98842.31;;;7.25;48.22
47080;BME280;33067;49.296;14.470;2023-02-12T06:31:45;98846.12;;;7.56;47.49
47080;BME280;33067;49.296;14.470;2023-02-12T06:34:11;98853.02;;;7.61;47.15
47080;BME280;33067;49.296;14.470;2023-02-12T06:36:37;98856.63;;;7.67;47.38
47080;BME280;33067;49.296;14.470;2023-02-12T06:39:02;98858.91;;;7.72;46.74
47080;BME280;33067;49.296;14.470;2023-02-12T06:41:28;98859.66;;;7.18;47.50
47080;BME280;33067;49.296;14.470;2023-02-12T06:43:52;98862.33;;;7.75;46.91
47080;BME280;33067;49.296;14.470;2023-02-12T06:46:18;98865.15;;;7.60;47.32
47080;BME280;33067;49.296;14.470;2023-02-12T06:48:43;98861.58;;;7.42;47.09
47080;BME280;33067;49.296;14.470;2023-02-12T06:51:11;98861.28;;;7.61;47.07
47080;BME280;33067;49.296;14.470;2023-02-12T06:53:35;98865.59;;;7.80;47.09
47080;BME280;33067;49.296;14.470;2023-02-12T06:56:01;98866.73;;;7.82;46.75
47080;BME280;33067;49.296;14.470;2023-02-12T06:58:26;98864.02;;;7.42;47.18
47080;BME280;33067;49.296;14.470;2023-02-12T07:00:51;98862.28;;;7.50;47.07
47080;BME280;33067;49.296;14.470;2023-02-12T07:03:16;98863.94;;;7.31;47.46
47080;BME280;33067;49.296;14.470;2023-02-12T07:05:42;98867.62;;;7.55;47.66
47080;BME280;33067;49.296;14.470;2023-02-12T07:08:08;98871.42;;;7.50;47.76
47080;BME280;33067;49.296;14.470;2023-02-12T07:10:33;98872.04;;;7.80;47.85
47080;BME280;33067;49.296;14.470;2023-02-12T07:12:59;98873.08;;;7.48;48.00
47080;BME280;33067;49.296;14.470;2023-02-12T07:15:25;98876.31;;;7.13;48.32
47080;BME280;33067;49.296;14.470;2023-02-12T07:17:50;98872.25;;;7.51;48.18
47080;BME280;33067;49.296;14.470;2023-02-12T07:20:16;98871.68;;;7.60;47.94
47080;BME280;33067;49.296;14.470;2023-02-12T07:22:41;98869.64;;;7.39;47.93
47080;BME280;33067;49.296;14.470;2023-02-12T07:25:07;98871.10;;;7.38;47.79
47080;BME280;33067;49.296;14.470;2023-02-12T07:27:35;98865.38;;;7.70;47.71
47080;BME280;33067;49.296;14.470;2023-02-12T07:29:58;98862.53;;;7.19;48.08
47080;BME280;33067;49.296;14.470;2023-02-12T07:32:23;98864.55;;;7.22;48.38
47080;BME280;33067;49.296;14.470;2023-02-12T07:34:49;98864.04;;;7.26;48.07
47080;BME280;33067;49.296;14.470;2023-02-12T07:37:14;98872.06;;;7.56;48.40
47080;BME280;33067;49.296;14.470;2023-02-12T07:39:40;98875.97;;;7.55;48.41
47080;BME280;33067;49.296;14.470;2023-02-12T07:42:06;98880.52;;;7.22;48.43
47080;BME280;33067;49.296;14.470;2023-02-12T07:44:31;98886.99;;;7.16;48.77
47080;BME280;33067;49.296;14.470;2023-02-12T07:46:57;98887.88;;;7.67;48.54
47080;BME280;33067;49.296;14.470;2023-02-12T07:49:22;98888.73;;;7.72;47.89
47080;BME280;33067;49.296;14.470;2023-02-12T07:51:48;98889.50;;;7.73;47.78
47080;BME280;33067;49.296;14.470;2023-02-12T07:54:14;98892.42;;;7.80;47.41
47080;BME280;33067;49.296;14.470;2023-02-12T07:56:40;98893.85;;;7.65;48.12
47080;BME280;33067;49.296;14.470;2023-02-12T07:59:08;98895.62;;;7.87;47.82
47080;BME280;33067;49.296;14.470;2023-02-12T08:01:31;98893.43;;;8.65;46.91
47080;BME280;33067;49.296;14.470;2023-02-12T08:03:57;98898.27;;;8.21;46.62
47080;BME280;33067;49.296;14.470;2023-02-12T08:06:21;98904.30;;;8.48;46.34
47080;BME280;33067;49.296;14.470;2023-02-12T08:08:45;98908.86;;;8.34;46.65
47080;BME280;33067;49.296;14.470;2023-02-12T08:11:12;98914.14;;;8.57;46.38
47080;BME280;33067;49.296;14.470;2023-02-12T08:13:37;98915.07;;;8.77;46.18
47080;BME280;33067;49.296;14.470;2023-02-12T08:16:04;98916.26;;;9.03;45.81
47080;BME280;33067;49.296;14.470;2023-02-12T08:18:27;98915.31;;;8.94;45.82
47080;BME280;33067;49.296;14.470;2023-02-12T08:20:52;98916.89;;;9.01;45.76
47080;BME280;33067;49.296;14.470;2023-02-12T08:23:18;98918.23;;;8.57;45.73
47080;BME280;33067;49.296;14.470;2023-02-12T08:25:43;98923.20;;;8.75;45.92
47080;BME280;33067;49.296;14.470;2023-02-12T08:28:08;98920.98;;;8.55;46.35
47080;BME280;33067;49.296;14.470;2023-02-12T08:30:33;98921.92;;;8.59;46.49
47080;BME280;33067;49.296;14.470;2023-02-12T08:32:58;98925.53;;;9.02;45.49
47080;BME280;33067;49.296;14.470;2023-02-12T08:35:24;98924.31;;;8.52;45.32
47080;BME280;33067;49.296;14.470;2023-02-12T08:37:49;98927.33;;;8.99;45.47
47080;BME280;33067;49.296;14.470;2023-02-12T08:40:15;98926.13;;;9.02;45.37
47080;BME280;33067;49.296;14.470;2023-02-12T08:42:40;98925.22;;;9.25;45.01
47080;BME280;33067;49.296;14.470;2023-02-12T08:45:05;98929.51;;;9.05;45.15
47080;BME280;33067;49.296;14.470;2023-02-12T08:47:30;98931.53;;;9.37;44.95
47080;BME280;33067;49.296;14.470;2023-02-12T08:49:55;98934.10;;;8.98;45.05
47080;BME280;33067;49.296;14.470;2023-02-12T08:52:21;98936.33;;;8.71;45.00
47080;BME280;33067;49.296;14.470;2023-02-12T08:54:46;98940.26;;;9.03;45.82
47080;BME280;33067;49.296;14.470;2023-02-12T08:57:11;98945.22;;;8.41;45.93
47080;BME280;33067;49.296;14.470;2023-02-12T08:59:36;98945.83;;;8.95;45.30
47080;BME280;33067;49.296;14.470;2023-02-12T09:02:02;98941.67;;;8.27;46.76
47080;BME280;33067;49.296;14.470;2023-02-12T09:04:28;98942.16;;;8.64;46.84
47080;BME280;33067;49.296;14.470;2023-02-12T09:06:54;98943.56;;;8.68;46.63
47080;BME280;33067;49.296;14.470;2023-02-12T09:09:19;98944.98;;;8.25;46.72
47080;BME280;33067;49.296;14.470;2023-02-12T09:11:43;98946.82;;;7.98;47.44
47080;BME280;33067;49.296;14.470;2023-02-12T09:14:11;98947.88;;;8.80;46.66
47080;BME280;33067;49.296;14.470;2023-02-12T09:16:35;98950.12;;;8.83;46.57
47080;BME280;33067;49.296;14.470;2023-02-12T09:19:00;98953.01;;;8.67;46.48
47080;BME280;33067;49.296;14.470;2023-02-12T09:21:25;98955.98;;;8.81;46.40
47080;BME280;33067;49.296;14.470;2023-02-12T09:23:51;98958.11;;;8.23;46.78
47080;BME280;33067;49.296;14.470;2023-02-12T09:26:18;98960.81;;;8.19;46.97
47080;BME280;33067;49.296;14.470;2023-02-12T09:28:42;98965.01;;;7.96;47.49
47080;BME280;33067;49.296;14.470;2023-02-12T09:31:09;98971.88;;;8.53;47.17
47080;BME280;33067;49.296;14.470;2023-02-12T09:33:33;98974.62;;;8.40;47.35
47080;BME280;33067;49.296;14.470;2023-02-12T09:36:01;98975.13;;;8.41;47.00
47080;BME280;33067;49.296;14.470;2023-02-12T09:38:23;98976.92;;;8.37;46.57
47080;BME280;33067;49.296;14.470;2023-02-12T09:40:59;98980.58;;;8.68;46.60
47080;BME280;33067;49.296;14.470;2023-02-12T09:43:17;98980.11;;;8.84;46.68
47080;BME280;33067;49.296;14.470;2023-02-12T09:45:45;98986.12;;;8.40;46.73
47080;BME280;33067;49.296;14.470;2023-02-12T09:48:17;98990.00;;;8.84;46.43
47080;BME280;33067;49.296;14.470;2023-02-12T09:50:38;98992.76;;;8.56;46.67
47080;BME280;33067;49.296;14.470;2023-02-12T09:52:56;98996.50;;;8.82;46.40
47080;BME280;33067;49.296;14.470;2023-02-12T09:55:24;99000.00;;;9.33;45.72
47080;BME280;33067;49.296;14.470;2023-02-12T09:57:47;99005.75;;;9.38;46.18
47080;BME280;33067;49.296;14.470;2023-02-12T10:00:17;99006.41;;;8.62;46.90
47080;BME280;33067;49.296;14.470;2023-02-12T10:02:39;99009.54;;;8.39;47.08
47080;BME280;33067;49.296;14.470;2023-02-12T10:05:03;99008.33;;;8.83;47.41
47080;BME280;33067;49.296;14.470;2023-02-12T10:07:38;99009.01;;;8.33;47.42
47080;BME280;33067;49.296;14.470;2023-02-12T10:10:07;99012.32;;;8.29;47.40
47080;BME280;33067;49.296;14.470;2023-02-12T10:12:23;99014.79;;;8.95;47.09
47080;BME280;33067;49.296;14.470;2023-02-12T10:15:01;99015.22;;;9.00;46.91
47080;BME280;33067;49.296;14.470;2023-02-12T10:17:17;99018.59;;;9.04;46.31
47080;BME280;33067;49.296;14.470;2023-02-12T10:19:49;99018.80;;;9.15;46.54
47080;BME280;33067;49.296;14.470;2023-02-12T10:22:06;99015.62;;;8.33;47.30
47080;BME280;33067;49.296;14.470;2023-02-12T10:24:40;99012.52;;;8.64;46.97
47080;BME280;33067;49.296;14.470;2023-02-12T10:26:54;99009.41;;;8.96;46.56
47080;BME280;33067;49.296;14.470;2023-02-12T10:29:19;99008.24;;;8.99;46.62
47080;BME280;33067;49.296;14.470;2023-02-12T10:31:46;99009.89;;;8.91;46.40
47080;BME280;33067;49.296;14.470;2023-02-12T10:34:15;99010.43;;;7.93;49.25
47080;BME280;33067;49.296;14.470;2023-02-12T10:36:40;99008.71;;;8.48;48.18
47080;BME280;33067;49.296;14.470;2023-02-12T10:39:02;99009.39;;;8.47;47.86
47080;BME280;33067;49.296;14.470;2023-02-12T10:41:27;99004.75;;;8.37;47.97
47080;BME280;33067;49.296;14.470;2023-02-12T10:43:50;99000.07;;;8.50;47.52
47080;BME280;33067;49.296;14.470;2023-02-12T10:46:16;99001.18;;;9.25;46.74
47080;BME280;33067;49.296;14.470;2023-02-12T10:48:43;99005.61;;;9.15;46.20
47080;BME280;33067;49.296;14.470;2023-02-12T10:51:20;99005.32;;;9.07;46.33
47080;BME280;33067;49.296;14.470;2023-02-12T10:53:33;99002.78;;;9.09;46.36
47080;BME280;33067;49.296;14.470;2023-02-12T10:58:22;98994.55;;;9.16;45.73
47080;BME280;33067;49.296;14.470;2023-02-12T11:00:55;98995.10;;;9.43;45.45
47080;BME280;33067;49.296;14.470;2023-02-12T11:03:20;98994.42;;;9.33;45.08
47080;BME280;33067;49.296;14.470;2023-02-12T11:05:39;98989.73;;;9.54;45.17
47080;BME280;33067;49.296;14.470;2023-02-12T11:08:04;98988.93;;;9.06;45.88
47080;BME280;33067;49.296;14.470;2023-02-12T11:10:31;98987.45;;;9.22;45.46
47080;BME280;33067;49.296;14.470;2023-02-12T11:12:54;98992.53;;;9.24;45.76
47080;BME280;33067;49.296;14.470;2023-02-12T11:15:21;98990.22;;;8.96;45.83
47080;BME280;33067;49.296;14.470;2023-02-12T11:17:54;98984.61;;;9.28;45.09
47080;BME280;33067;49.296;14.470;2023-02-12T11:20:22;98983.87;;;8.71;45.64
47080;BME280;33067;49.296;14.470;2023-02-12T11:22:36;98983.13;;;9.03;45.22
47080;BME280;33067;49.296;14.470;2023-02-12T11:25:13;98983.58;;;9.16;45.14
47080;BME280;33067;49.296;14.470;2023-02-12T11:27:29;98988.52;;;9.16;44.50
47080;BME280;33067;49.296;14.470;2023-02-12T11:30:11;98985.79;;;9.57;44.57
47080;BME280;33067;49.296;14.470;2023-02-12T11:32:19;98987.50;;;9.36;44.43
47080;BME280;33067;49.296;14.470;2023-02-12T11:34:43;98985.21;;;9.58;44.33
47080;BME280;33067;49.296;14.470;2023-02-12T11:37:15;98988.37;;;9.77;44.51
47080;BME280;33067;49.296;14.470;2023-02-12T11:39:36;98985.06;;;9.68;44.57
47080;BME280;33067;49.296;14.470;2023-02-12T11:42:01;98982.45;;;9.79;44.11
47080;BME280;33067;49.296;14.470;2023-02-12T11:44:27;98981.30;;;9.56;44.18
47080;BME280;33067;49.296;14.470;2023-02-12T11:46:53;98979.88;;;10.16;43.34
47080;BME280;33067;49.296;14.470;2023-02-12T11:49:19;98980.46;;;9.75;44.00
47080;BME280;33067;49.296;14.470;2023-02-12T11:51:46;98984.01;;;9.19;44.75
47080;BME280;33067;49.296;14.470;2023-02-12T11:54:16;98981.63;;;9.66;44.54
47080;BME280;33067;49.296;14.470;2023-02-12T11:56:41;98987.09;;;9.09;44.59
47080;BME280;33067;49.296;14.470;2023-02-12T12:01:27;98980.21;;;9.32;44.29
47080;BME280;33067;49.296;14.470;2023-02-12T12:03:54;98981.50;;;9.29;44.79
47080;BME280;33067;49.296;14.470;2023-02-12T12:06:23;98982.72;;;8.49;46.11
47080;BME280;33067;49.296;14.470;2023-02-12T12:08:42;98981.03;;;8.44;46.04
47080;BME280;33067;49.296;14.470;2023-02-12T12:11:09;98979.39;;;9.23;45.87
47080;BME280;33067;49.296;14.470;2023-02-12T12:13:34;98977.74;;;9.21;45.20
47080;BME280;33067;49.296;14.470;2023-02-12T12:16:03;98971.78;;;9.47;44.91
47080;BME280;33067;49.296;14.470;2023-02-12T12:18:28;98979.67;;;9.26;45.23
47080;BME280;33067;49.296;14.470;2023-02-12T12:20:49;98981.78;;;9.04;45.53
47080;BME280;33067;49.296;14.470;2023-02-12T12:23:17;98980.94;;;7.89;47.43
47080;BME280;33067;49.296;14.470;2023-02-12T12:25:42;98977.77;;;8.20;47.70
47080;BME280;33067;49.296;14.470;2023-02-12T12:28:13;98977.77;;;8.60;47.05
47080;BME280;33067;49.296;14.470;2023-02-12T12:32:55;98972.19;;;8.02;48.18
47080;BME280;33067;49.296;14.470;2023-02-12T12:35:25;98973.43;;;8.68;47.08
47080;BME280;33067;49.296;14.470;2023-02-12T12:37:48;98971.67;;;9.00;46.49
47080;BME280;33067;49.296;14.470;2023-02-12T12:40:24;98970.80;;;8.70;46.14
47080;BME280;33067;49.296;14.470;2023-02-12T12:42:50;98967.22;;;9.05;45.55
47080;BME280;33067;49.296;14.470;2023-02-12T12:45:13;98965.60;;;8.89;46.04
47080;BME280;33067;49.296;14.470;2023-02-12T12:47:32;98965.59;;;8.99;45.86
47080;BME280;33067;49.296;14.470;2023-02-12T12:49:59;98965.89;;;8.97;45.82
47080;BME280;33067;49.296;14.470;2023-02-12T12:52:33;98962.98;;;9.00;46.00
47080;BME280;33067;49.296;14.470;2023-02-12T12:54:54;98956.91;;;9.35;45.64
47080;BME280;33067;49.296;14.470;2023-02-12T12:57:14;98957.47;;;8.50;46.83
47080;BME280;33067;49.296;14.470;2023-02-12T13:04:41;98957.98;;;8.55;47.54
47080;BME280;33067;49.296;14.470;2023-02-12T13:06:56;98959.07;;;8.60;47.69